sensor_id;sensor_type;location;lat;lon;timestamp;pressure;altitude;pressure_sealevel;temperature;humidity
47054;BME280;32811;52.382;5.270;2023-05-25T00:00:57;102700.31;;;10.09;100.00
47054;BME280;32811;52.382;5.270;2023-05-25T00:03:28;102721.06;;;10.12;100.00
47054;BME280;32811;52.382;5.270;2023-05-25T00:05:57;102710.69;;;10.10;100.00
47054;BME280;32811;52.382;5.270;2023-05-25T00:08:24;102717.50;;;10.08;100.00
47054;BME280;32811;52.382;5.270;2023-05-25T00:10:50;102721.59;;;10.03;100.00
47054;BME280;32811;52.382;5.270;2023-05-25T00:13:17;102711.06;;;9.97;100.00
47054;BME280;32811;52.382;5.270;2023-05-25T00:15:44;102711.84;;;9.94;100.00
47054;BME280;32811;52.382;5.270;2023-05-25T00:18:11;102707.31;;;9.89;100.00
47054;BME280;32811;52.382;5.270;2023-05-25T00:20:38;102715.03;;;9.89;100.00
47054;BME280;32811;52.382;5.270;2023-05-25T00:23:05;102706.41;;;9.87;100.00
47054;BME280;32811;52.382;5.270;2023-05-25T00:25:31;102709.78;;;9.86;100.00
47054;BME280;32811;52.382;5.270;2023-05-25T00:27:58;102707.91;;;9.82;100.00
47054;BME280;32811;52.382;5.270;2023-05-25T00:30:25;102713.84;;;9.79;100.00
47054;BME280;32811;52.382;5.270;2023-05-25T00:32:51;102709.34;;;9.73;100.00
47054;BME280;32811;52.382;5.270;2023-05-25T00:35:21;102710.97;;;9.71;100.00
47054;BME280;32811;52.382;5.270;2023-05-25T00:37:47;102721.16;;;9.68;100.00
47054;BME280;32811;52.382;5.270;2023-05-25T00:40:15;102724.56;;;9.67;100.00
47054;BME280;32811;52.382;5.270;2023-05-25T00:42:43;102722.78;;;9.66;100.00
47054;BME280;32811;52.382;5.270;2023-05-25T00:45:10;102724.31;;;9.61;100.00
47054;BME280;32811;52.382;5.270;2023-05-25T00:47:38;102723.38;;;9.59;100.00
47054;BME280;32811;52.382;5.270;2023-05-25T00:50:07;102728.34;;;9.54;100.00
47054;BME280;32811;52.382;5.270;2023-05-25T00:52:34;102730.06;;;9.54;100.00
47054;BME280;32811;52.382;5.270;2023-05-25T00:55:20;102731.69;;;9.52;100.00
47054;BME280;32811;52.382;5.270;2023-05-25T00:57:59;102735.81;;;9.47;100.00
47054;BME280;32811;52.382;5.270;2023-05-25T01:00:27;102733.91;;;9.43;100.00
47054;BME280;32811;52.382;5.270;2023-05-25T01:02:55;102731.16;;;9.38;100.00
47054;BME280;32811;52.382;5.270;2023-05-25T01:05:24;102735.22;;;9.33;100.00
47054;BME280;32811;52.382;5.270;2023-05-25T01:07:56;102741.16;;;9.30;100.00
47054;BME280;32811;52.382;5.270;2023-05-25T01:10:25;102750.50;;;9.28;100.00
47054;BME280;32811;52.382;5.270;2023-05-25T01:12:54;102745.34;;;9.28;100.00
47054;BME280;32811;52.382;5.270;2023-05-25T01:15:22;102749.47;;;9.23;100.00
47054;BME280;32811;52.382;5.270;2023-05-25T01:17:50;102742.41;;;9.19;100.00
47054;BME280;32811;52.382;5.270;2023-05-25T01:20:19;102736.31;;;9.17;100.00
47054;BME280;32811;52.382;5.270;2023-05-25T01:26:12;102741.16;;;9.09;100.00
47054;BME280;32811;52.382;5.270;2023-05-25T01:28:45;102746.06;;;9.03;100.00
47054;BME280;32811;52.382;5.270;2023-05-25T01:31:13;102745.03;;;9.00;100.00
47054;BME280;32811;52.382;5.270;2023-05-25T01:33:44;102733.50;;;8.90;100.00
47054;BME280;32811;52.382;5.270;2023-05-25T01:36:13;102727.13;;;8.82;100.00
47054;BME280;32811;52.382;5.270;2023-05-25T01:38:42;102752.53;;;8.93;100.00
47054;BME280;32811;52.382;5.270;2023-05-25T01:41:09;102754.03;;;8.88;100.00
47054;BME280;32811;52.382;5.270;2023-05-25T01:43:35;102746.09;;;8.84;100.00
47054;BME280;32811;52.382;5.270;2023-05-25T01:46:22;102754.59;;;8.81;100.00
47054;BME280;32811;52.382;5.270;2023-05-25T01:52:14;102752.28;;;8.68;100.00
47054;BME280;32811;52.382;5.270;2023-05-25T01:55:02;102756.50;;;8.66;100.00
47054;BME280;32811;52.382;5.270;2023-05-25T01:57:35;102752.84;;;8.61;100.00
47054;BME280;32811;52.382;5.270;2023-05-25T02:00:04;102738.63;;;8.49;100.00
47054;BME280;32811;52.382;5.270;2023-05-25T02:02:31;102758.00;;;8.61;100.00
47054;BME280;32811;52.382;5.270;2023-05-25T02:05:00;102743.66;;;8.46;100.00
47054;BME280;32811;52.382;5.270;2023-05-25T02:07:30;102729.53;;;8.38;100.00
47054;BME280;32811;52.382;5.270;2023-05-25T02:10:02;102731.78;;;8.30;100.00
47054;BME280;32811;52.382;5.270;2023-05-25T02:12:29;102756.38;;;8.43;100.00
47054;BME280;32811;52.382;5.270;2023-05-25T02:14:57;102764.31;;;8.48;100.00
47054;BME280;32811;52.382;5.270;2023-05-25T02:17:24;102759.03;;;8.45;100.00
47054;BME280;32811;52.382;5.270;2023-05-25T02:19:53;102762.41;;;8.44;100.00
47054;BME280;32811;52.382;5.270;2023-05-25T02:22:21;102754.31;;;8.36;100.00
47054;BME280;32811;52.382;5.270;2023-05-25T02:24:48;102731.31;;;8.20;100.00
47054;BME280;32811;52.382;5.270;2023-05-25T02:27:16;102765.47;;;8.37;100.00
47054;BME280;32811;52.382;5.270;2023-05-25T02:29:43;102760.81;;;8.28;100.00
47054;BME280;32811;52.382;5.270;2023-05-25T02:32:10;102750.72;;;8.13;100.00
47054;BME280;32811;52.382;5.270;2023-05-25T02:34:37;102782.22;;;8.27;100.00
47054;BME280;32811;52.382;5.270;2023-05-25T02:37:04;102755.88;;;8.13;100.00
47054;BME280;32811;52.382;5.270;2023-05-25T02:39:30;102761.78;;;8.10;100.00
47054;BME280;32811;52.382;5.270;2023-05-25T02:41:57;102752.16;;;8.06;100.00
47054;BME280;32811;52.382;5.270;2023-05-25T02:44:24;102744.16;;;8.00;100.00
47054;BME280;32811;52.382;5.270;2023-05-25T02:46:51;102757.28;;;8.06;100.00
47054;BME280;32811;52.382;5.270;2023-05-25T02:49:18;102758.75;;;8.01;100.00
47054;BME280;32811;52.382;5.270;2023-05-25T02:51:46;102762.97;;;7.99;100.00
47054;BME280;32811;52.382;5.270;2023-05-25T02:54:13;102742.41;;;7.81;100.00
47054;BME280;32811;52.382;5.270;2023-05-25T02:56:39;102754.34;;;7.79;100.00
47054;BME280;32811;52.382;5.270;2023-05-25T02:59:07;102762.03;;;7.79;100.00
47054;BME280;32811;52.382;5.270;2023-05-25T03:01:34;102755.75;;;7.73;100.00
47054;BME280;32811;52.382;5.270;2023-05-25T03:04:01;102750.44;;;7.69;100.00
47054;BME280;32811;52.382;5.270;2023-05-25T03:06:28;102744.19;;;7.64;100.00
47054;BME280;32811;52.382;5.270;2023-05-25T03:08:55;102760.06;;;7.74;100.00
47054;BME280;32811;52.382;5.270;2023-05-25T03:11:21;102752.00;;;7.66;100.00
47054;BME280;32811;52.382;5.270;2023-05-25T03:13:50;102769.47;;;7.73;100.00
47054;BME280;32811;52.382;5.270;2023-05-25T03:16:17;102766.22;;;7.77;100.00
47054;BME280;32811;52.382;5.270;2023-05-25T03:18:43;102759.09;;;7.72;100.00
47054;BME280;32811;52.382;5.270;2023-05-25T03:21:10;102750.38;;;7.68;100.00
47054;BME280;32811;52.382;5.270;2023-05-25T03:23:37;102752.13;;;7.69;100.00
47054;BME280;32811;52.382;5.270;2023-05-25T03:26:03;102745.06;;;7.65;100.00
47054;BME280;32811;52.382;5.270;2023-05-25T03:28:30;102730.97;;;7.57;100.00
47054;BME280;32811;52.382;5.270;2023-05-25T03:30:57;102737.16;;;7.60;100.00
47054;BME280;32811;52.382;5.270;2023-05-25T03:33:24;102746.78;;;7.64;100.00
47054;BME280;32811;52.382;5.270;2023-05-25T03:35:50;102758.00;;;7.66;100.00
47054;BME280;32811;52.382;5.270;2023-05-25T03:38:18;102791.31;;;7.83;100.00
47054;BME280;32811;52.382;5.270;2023-05-25T03:40:47;102791.19;;;7.80;100.00
47054;BME280;32811;52.382;5.270;2023-05-25T03:43:13;102791.03;;;7.77;100.00
47054;BME280;32811;52.382;5.270;2023-05-25T03:45:40;102791.19;;;7.80;100.00
47054;BME280;32811;52.382;5.270;2023-05-25T03:48:07;102801.78;;;7.86;100.00
47054;BME280;32811;52.382;5.270;2023-05-25T03:50:38;102792.19;;;7.83;100.00
47054;BME280;32811;52.382;5.270;2023-05-25T03:53:06;102799.19;;;7.86;100.00
47054;BME280;32811;52.382;5.270;2023-05-25T03:55:33;102791.84;;;7.76;100.00
47054;BME280;32811;52.382;5.270;2023-05-25T03:57:59;102771.00;;;7.69;100.00
47054;BME280;32811;52.382;5.270;2023-05-25T04:00:26;102780.75;;;7.77;100.00
47054;BME280;32811;52.382;5.270;2023-05-25T04:02:53;102789.41;;;7.79;100.00
47054;BME280;32811;52.382;5.270;2023-05-25T04:05:20;102791.50;;;7.86;100.00
47054;BME280;32811;52.382;5.270;2023-05-25T04:07:47;102784.88;;;7.91;100.00
47054;BME280;32811;52.382;5.270;2023-05-25T04:10:14;102784.88;;;7.91;100.00
47054;BME280;32811;52.382;5.270;2023-05-25T04:12:40;102799.72;;;8.16;100.00
47054;BME280;32811;52.382;5.270;2023-05-25T04:15:08;102813.63;;;8.20;100.00
47054;BME280;32811;52.382;5.270;2023-05-25T04:17:35;102803.13;;;8.15;100.00
47054;BME280;32811;52.382;5.270;2023-05-25T04:20:06;102793.91;;;8.20;100.00
47054;BME280;32811;52.382;5.270;2023-05-25T04:22:36;102768.53;;;8.08;100.00
47054;BME280;32811;52.382;5.270;2023-05-25T04:25:05;102824.44;;;8.50;100.00
47054;BME280;32811;52.382;5.270;2023-05-25T04:27:52;102824.31;;;8.47;100.00
47054;BME280;32811;52.382;5.270;2023-05-25T04:30:22;102819.25;;;8.48;100.00
47054;BME280;32811;52.382;5.270;2023-05-25T04:32:49;102832.66;;;8.61;100.00
47054;BME280;32811;52.382;5.270;2023-05-25T04:35:19;102833.72;;;8.66;100.00
47054;BME280;32811;52.382;5.270;2023-05-25T04:37:47;102839.28;;;8.75;100.00
47054;BME280;32811;52.382;5.270;2023-05-25T04:40:16;102801.47;;;8.55;100.00
47054;BME280;32811;52.382;5.270;2023-05-25T04:42:42;102840.44;;;8.82;100.00
47054;BME280;32811;52.382;5.270;2023-05-25T04:45:10;102805.47;;;8.67;100.00
47054;BME280;32811;52.382;5.270;2023-05-25T04:47:39;102841.66;;;8.90;100.00
47054;BME280;32811;52.382;5.270;2023-05-25T04:50:10;102839.16;;;8.91;100.00
47054;BME280;32811;52.382;5.270;2023-05-25T04:52:37;102845.72;;;9.04;100.00
47054;BME280;32811;52.382;5.270;2023-05-25T04:55:05;102846.31;;;9.18;100.00
47054;BME280;32811;52.382;5.270;2023-05-25T04:57:31;102843.47;;;9.33;100.00
47054;BME280;32811;52.382;5.270;2023-05-25T04:59:58;102836.16;;;9.42;100.00
47054;BME280;32811;52.382;5.270;2023-05-25T05:02:25;102818.47;;;9.51;100.00
47054;BME280;32811;52.382;5.270;2023-05-25T05:04:52;102844.09;;;9.90;100.00
47054;BME280;32811;52.382;5.270;2023-05-25T05:07:19;102848.47;;;10.15;100.00
47054;BME280;32811;52.382;5.270;2023-05-25T05:09:47;102827.59;;;10.30;100.00
47054;BME280;32811;52.382;5.270;2023-05-25T05:12:14;102826.91;;;10.58;100.00
47054;BME280;32811;52.382;5.270;2023-05-25T05:14:41;102844.03;;;11.05;100.00
47054;BME280;32811;52.382;5.270;2023-05-25T05:17:08;102825.81;;;11.27;100.00
47054;BME280;32811;52.382;5.270;2023-05-25T05:19:34;102816.06;;;11.71;100.00
47054;BME280;32811;52.382;5.270;2023-05-25T05:22:01;102817.59;;;12.20;100.00
47054;BME280;32811;52.382;5.270;2023-05-25T05:24:28;102799.78;;;12.61;100.00
47054;BME280;32811;52.382;5.270;2023-05-25T05:26:54;102804.38;;;13.05;100.00
47054;BME280;32811;52.382;5.270;2023-05-25T05:29:25;102819.22;;;13.45;100.00
47054;BME280;32811;52.382;5.270;2023-05-25T05:31:56;102843.88;;;14.01;100.00
47054;BME280;32811;52.382;5.270;2023-05-25T05:34:23;102834.81;;;14.21;100.00
47054;BME280;32811;52.382;5.270;2023-05-25T05:36:49;102840.63;;;14.52;100.00
47054;BME280;32811;52.382;5.270;2023-05-25T05:39:24;102848.78;;;14.67;100.00
47054;BME280;32811;52.382;5.270;2023-05-25T05:41:52;102852.63;;;14.88;100.00
47054;BME280;32811;52.382;5.270;2023-05-25T05:44:20;102847.13;;;15.20;100.00
47054;BME280;32811;52.382;5.270;2023-05-25T05:46:47;102857.03;;;15.42;100.00
47054;BME280;32811;52.382;5.270;2023-05-25T05:49:14;102858.09;;;15.52;100.00
47054;BME280;32811;52.382;5.270;2023-05-25T05:51:42;102823.88;;;15.27;100.00
47054;BME280;32811;52.382;5.270;2023-05-25T05:54:09;102855.13;;;15.30;100.00
47054;BME280;32811;52.382;5.270;2023-05-25T05:56:35;102859.34;;;15.74;100.00
47054;BME280;32811;52.382;5.270;2023-05-25T05:59:02;102849.38;;;15.50;100.00
47054;BME280;32811;52.382;5.270;2023-05-25T06:01:29;102861.34;;;15.93;100.00
47054;BME280;32811;52.382;5.270;2023-05-25T06:03:56;102866.22;;;16.30;100.00
47054;BME280;32811;52.382;5.270;2023-05-25T06:06:31;102863.41;;;16.16;100.00
47054;BME280;32811;52.382;5.270;2023-05-25T06:09:00;102871.09;;;16.72;100.00
47054;BME280;32811;52.382;5.270;2023-05-25T06:11:29;102864.41;;;16.96;100.00
47054;BME280;32811;52.382;5.270;2023-05-25T06:13:58;102852.81;;;16.74;100.00
47054;BME280;32811;52.382;5.270;2023-05-25T06:16:25;102871.22;;;16.85;100.00
47054;BME280;32811;52.382;5.270;2023-05-25T06:18:52;102847.53;;;16.66;100.00
47054;BME280;32811;52.382;5.270;2023-05-25T06:21:18;102842.72;;;17.01;100.00
47054;BME280;32811;52.382;5.270;2023-05-25T06:23:45;102877.78;;;17.28;100.00
47054;BME280;32811;52.382;5.270;2023-05-25T06:26:13;102869.03;;;17.28;100.00
47054;BME280;32811;52.382;5.270;2023-05-25T06:28:39;102875.34;;;17.48;100.00
47054;BME280;32811;52.382;5.270;2023-05-25T06:31:06;102857.13;;;17.60;100.00
47054;BME280;32811;52.382;5.270;2023-05-25T06:33:33;102857.44;;;18.03;100.00
47054;BME280;32811;52.382;5.270;2023-05-25T06:36:00;102878.63;;;17.27;100.00
47054;BME280;32811;52.382;5.270;2023-05-25T06:38:27;102863.97;;;16.60;100.00
47054;BME280;32811;52.382;5.270;2023-05-25T06:40:54;102880.44;;;15.92;100.00
47054;BME280;32811;52.382;5.270;2023-05-25T06:43:20;102875.00;;;15.27;100.00
47054;BME280;32811;52.382;5.270;2023-05-25T06:45:48;102895.13;;;14.90;100.00
47054;BME280;32811;52.382;5.270;2023-05-25T06:48:15;102891.97;;;14.23;100.00
47054;BME280;32811;52.382;5.270;2023-05-25T06:50:42;102872.25;;;13.91;100.00
47054;BME280;32811;52.382;5.270;2023-05-25T06:53:08;102871.75;;;13.72;100.00
47054;BME280;32811;52.382;5.270;2023-05-25T06:55:36;102900.38;;;13.73;100.00
47054;BME280;32811;52.382;5.270;2023-05-25T06:58:03;102915.34;;;13.85;100.00
47054;BME280;32811;52.382;5.270;2023-05-25T07:00:29;102892.91;;;13.87;100.00
47054;BME280;32811;52.382;5.270;2023-05-25T07:02:56;102912.47;;;14.10;100.00
47054;BME280;32811;52.382;5.270;2023-05-25T07:05:23;102915.88;;;14.08;100.00
47054;BME280;32811;52.382;5.270;2023-05-25T07:07:50;102913.22;;;14.05;100.00
47054;BME280;32811;52.382;5.270;2023-05-25T07:10:16;102922.03;;;14.11;100.00
47054;BME280;32811;52.382;5.270;2023-05-25T07:12:43;102917.75;;;14.14;100.00
47054;BME280;32811;52.382;5.270;2023-05-25T07:15:10;102911.91;;;14.22;100.00
47054;BME280;32811;52.382;5.270;2023-05-25T07:17:38;102920.22;;;14.47;100.00
47054;BME280;32811;52.382;5.270;2023-05-25T07:20:05;102917.53;;;14.44;100.00
47054;BME280;32811;52.382;5.270;2023-05-25T07:22:32;102913.22;;;14.43;100.00
47054;BME280;32811;52.382;5.270;2023-05-25T07:24:59;102918.34;;;14.41;100.00
47054;BME280;32811;52.382;5.270;2023-05-25T07:27:26;102923.88;;;14.55;100.00
47054;BME280;32811;52.382;5.270;2023-05-25T07:29:53;102914.03;;;14.42;100.00
47054;BME280;32811;52.382;5.270;2023-05-25T07:32:19;102933.13;;;14.44;100.00
47054;BME280;32811;52.382;5.270;2023-05-25T07:34:46;102920.31;;;14.51;100.00
47054;BME280;32811;52.382;5.270;2023-05-25T07:37:13;102940.00;;;14.42;100.00
47054;BME280;32811;52.382;5.270;2023-05-25T07:39:39;102931.31;;;14.40;100.00
47054;BME280;32811;52.382;5.270;2023-05-25T07:42:06;102936.78;;;14.52;100.00
47054;BME280;32811;52.382;5.270;2023-05-25T07:44:32;102941.41;;;14.64;100.00
47054;BME280;32811;52.382;5.270;2023-05-25T07:46:59;102947.22;;;14.94;100.00
47054;BME280;32811;52.382;5.270;2023-05-25T07:49:26;102938.31;;;14.82;100.00
47054;BME280;32811;52.382;5.270;2023-05-25T07:51:53;102944.38;;;14.82;100.00
47054;BME280;32811;52.382;5.270;2023-05-25T07:54:20;102948.09;;;14.95;100.00
47054;BME280;32811;52.382;5.270;2023-05-25T07:56:46;102940.53;;;15.06;100.00
47054;BME280;32811;52.382;5.270;2023-05-25T07:59:13;102952.09;;;15.22;100.00
47054;BME280;32811;52.382;5.270;2023-05-25T08:01:39;102941.47;;;15.09;100.00
47054;BME280;32811;52.382;5.270;2023-05-25T08:04:06;102953.97;;;15.29;100.00
47054;BME280;32811;52.382;5.270;2023-05-25T08:06:33;102954.38;;;15.50;100.00
47054;BME280;32811;52.382;5.270;2023-05-25T08:09:02;102960.56;;;15.57;100.00
47054;BME280;32811;52.382;5.270;2023-05-25T08:11:29;102949.44;;;15.19;100.00
47054;BME280;32811;52.382;5.270;2023-05-25T08:13:56;102950.47;;;15.28;100.00
47054;BME280;32811;52.382;5.270;2023-05-25T08:16:23;102959.88;;;15.69;100.00
47054;BME280;32811;52.382;5.270;2023-05-25T08:18:50;102958.38;;;16.38;100.00
47054;BME280;32811;52.382;5.270;2023-05-25T08:21:16;102950.59;;;16.39;100.00
47054;BME280;32811;52.382;5.270;2023-05-25T08:23:43;102955.28;;;16.04;100.00
47054;BME280;32811;52.382;5.270;2023-05-25T08:26:10;102962.84;;;16.44;100.00
47054;BME280;32811;52.382;5.270;2023-05-25T08:28:57;102971.13;;;16.18;100.00
47054;BME280;32811;52.382;5.270;2023-05-25T08:31:24;102971.22;;;16.24;100.00
47054;BME280;32811;52.382;5.270;2023-05-25T08:33:51;102943.09;;;16.02;100.00
47054;BME280;32811;52.382;5.270;2023-05-25T08:36:17;102970.84;;;16.00;100.00
47054;BME280;32811;52.382;5.270;2023-05-25T08:38:44;102971.91;;;15.61;100.00
47054;BME280;32811;52.382;5.270;2023-05-25T08:41:11;102984.78;;;15.53;100.00
47054;BME280;32811;52.382;5.270;2023-05-25T08:43:40;102961.31;;;15.06;100.00
47054;BME280;32811;52.382;5.270;2023-05-25T08:46:07;102977.16;;;15.17;100.00
47054;BME280;32811;52.382;5.270;2023-05-25T08:48:36;102979.25;;;14.92;100.00
47054;BME280;32811;52.382;5.270;2023-05-25T08:51:09;102980.41;;;15.05;100.00
47054;BME280;32811;52.382;5.270;2023-05-25T08:53:42;102976.75;;;14.97;100.00
47054;BME280;32811;52.382;5.270;2023-05-25T08:56:19;102978.88;;;15.16;100.00
47054;BME280;32811;52.382;5.270;2023-05-25T08:58:57;102982.13;;;15.51;100.00
47054;BME280;32811;52.382;5.270;2023-05-25T09:01:27;102986.75;;;16.18;100.00
47054;BME280;32811;52.382;5.270;2023-05-25T09:03:58;102978.78;;;16.06;100.00
47054;BME280;32811;52.382;5.270;2023-05-25T09:06:26;102968.22;;;15.98;100.00
47054;BME280;32811;52.382;5.270;2023-05-25T09:08:53;102986.19;;;15.83;100.00
47054;BME280;32811;52.382;5.270;2023-05-25T09:11:21;102973.09;;;15.76;100.00
47054;BME280;32811;52.382;5.270;2023-05-25T09:14:06;102985.19;;;15.74;100.00
47054;BME280;32811;52.382;5.270;2023-05-25T09:16:33;102971.56;;;15.42;100.00
47054;BME280;32811;52.382;5.270;2023-05-25T09:19:02;102978.09;;;15.22;100.00
47054;BME280;32811;52.382;5.270;2023-05-25T09:21:28;102978.75;;;15.10;100.00
47054;BME280;32811;52.382;5.270;2023-05-25T09:23:55;102985.66;;;15.08;100.00
47054;BME280;32811;52.382;5.270;2023-05-25T09:26:21;102946.63;;;15.08;100.00
47054;BME280;32811;52.382;5.270;2023-05-25T09:28:48;102978.69;;;15.52;100.00
47054;BME280;32811;52.382;5.270;2023-05-25T09:31:15;102973.75;;;15.68;100.00
47054;BME280;32811;52.382;5.270;2023-05-25T09:33:42;102989.66;;;15.82;100.00
47054;BME280;32811;52.382;5.270;2023-05-25T09:36:11;103003.69;;;15.91;100.00
47054;BME280;32811;52.382;5.270;2023-05-25T09:38:39;103004.31;;;15.76;100.00
47054;BME280;32811;52.382;5.270;2023-05-25T09:41:06;102990.00;;;15.54;100.00
47054;BME280;32811;52.382;5.270;2023-05-25T09:43:34;102993.00;;;15.76;100.00
47054;BME280;32811;52.382;5.270;2023-05-25T09:46:14;102962.69;;;15.80;100.00
47054;BME280;32811;52.382;5.270;2023-05-25T09:48:41;102993.16;;;16.37;100.00
47054;BME280;32811;52.382;5.270;2023-05-25T09:51:11;102970.16;;;16.10;100.00
47054;BME280;32811;52.382;5.270;2023-05-25T09:53:39;102969.31;;;16.14;100.00
47054;BME280;32811;52.382;5.270;2023-05-25T09:56:06;102973.88;;;16.26;100.00
47054;BME280;32811;52.382;5.270;2023-05-25T09:58:33;102965.72;;;16.04;100.00
47054;BME280;32811;52.382;5.270;2023-05-25T10:01:00;102978.09;;;16.19;100.00
47054;BME280;32811;52.382;5.270;2023-05-25T10:03:27;102979.25;;;16.38;100.00
47054;BME280;32811;52.382;5.270;2023-05-25T10:05:54;102980.81;;;16.27;100.00
47054;BME280;32811;52.382;5.270;2023-05-25T10:08:22;102979.75;;;16.14;100.00
47054;BME280;32811;52.382;5.270;2023-05-25T10:10:56;103001.88;;;15.87;100.00
47054;BME280;32811;52.382;5.270;2023-05-25T10:13:25;103014.78;;;15.80;100.00
47054;BME280;32811;52.382;5.270;2023-05-25T10:15:54;103004.47;;;15.40;100.00
47054;BME280;32811;52.382;5.270;2023-05-25T10:18:24;102979.16;;;15.30;100.00
47054;BME280;32811;52.382;5.270;2023-05-25T10:21:01;102991.16;;;15.25;100.00
47054;BME280;32811;52.382;5.270;2023-05-25T10:23:36;102999.09;;;15.29;100.00
47054;BME280;32811;52.382;5.270;2023-05-25T10:26:04;102979.19;;;15.33;100.00
47054;BME280;32811;52.382;5.270;2023-05-25T10:28:35;102980.06;;;15.33;100.00
47054;BME280;32811;52.382;5.270;2023-05-25T10:31:05;103013.09;;;15.36;100.00
47054;BME280;32811;52.382;5.270;2023-05-25T10:33:32;103011.88;;;15.19;100.00
47054;BME280;32811;52.382;5.270;2023-05-25T10:36:02;103016.19;;;15.17;100.00
47054;BME280;32811;52.382;5.270;2023-05-25T10:38:34;103014.00;;;15.40;100.00
47054;BME280;32811;52.382;5.270;2023-05-25T10:41:03;103015.75;;;15.39;100.00
47054;BME280;32811;52.382;5.270;2023-05-25T10:43:31;102992.03;;;15.24;100.00
47054;BME280;32811;52.382;5.270;2023-05-25T10:46:00;102986.88;;;15.27;100.00
47054;BME280;32811;52.382;5.270;2023-05-25T10:48:44;103011.50;;;15.44;100.00
47054;BME280;32811;52.382;5.270;2023-05-25T10:51:11;103009.81;;;15.46;100.00
47054;BME280;32811;52.382;5.270;2023-05-25T10:53:43;103006.38;;;15.47;100.00
47054;BME280;32811;52.382;5.270;2023-05-25T10:56:11;103023.38;;;15.75;100.00
47054;BME280;32811;52.382;5.270;2023-05-25T10:58:42;103025.09;;;15.73;100.00
47054;BME280;32811;52.382;5.270;2023-05-25T11:01:11;103022.16;;;15.56;100.00
47054;BME280;32811;52.382;5.270;2023-05-25T11:03:50;103015.34;;;15.63;100.00
47054;BME280;32811;52.382;5.270;2023-05-25T11:06:20;103022.81;;;15.92;100.00
47054;BME280;32811;52.382;5.270;2023-05-25T11:08:54;103007.44;;;16.06;100.00
47054;BME280;32811;52.382;5.270;2023-05-25T11:11:22;103014.00;;;16.38;100.00
47054;BME280;32811;52.382;5.270;2023-05-25T11:22:30;103025.25;;;16.36;100.00
47054;BME280;32811;52.382;5.270;2023-05-25T11:24:58;103016.38;;;16.79;100.00
47054;BME280;32811;52.382;5.270;2023-05-25T11:27:27;103006.56;;;16.65;100.00
47054;BME280;32811;52.382;5.270;2023-05-25T11:29:55;103006.34;;;16.49;100.00
47054;BME280;32811;52.382;5.270;2023-05-25T11:32:24;102982.66;;;16.34;100.00
47054;BME280;32811;52.382;5.270;2023-05-25T11:35:15;102969.53;;;16.26;100.00
47054;BME280;32811;52.382;5.270;2023-05-25T11:37:56;102977.22;;;16.18;100.00
47054;BME280;32811;52.382;5.270;2023-05-25T11:40:32;102969.91;;;16.54;100.00
47054;BME280;32811;52.382;5.270;2023-05-25T11:43:00;102976.88;;;16.56;100.00
47054;BME280;32811;52.382;5.270;2023-05-25T11:45:33;102962.56;;;16.86;100.00
47054;BME280;32811;52.382;5.270;2023-05-25T11:48:03;102986.09;;;16.94;100.00
47054;BME280;32811;52.382;5.270;2023-05-25T11:50:30;102998.25;;;16.90;100.00
47054;BME280;32811;52.382;5.270;2023-05-25T11:53:09;102980.28;;;16.48;100.00
47054;BME280;32811;52.382;5.270;2023-05-25T11:55:36;103009.78;;;16.47;100.00
47054;BME280;32811;52.382;5.270;2023-05-25T11:58:08;102972.34;;;16.42;100.00
47054;BME280;32811;52.382;5.270;2023-05-25T12:00:36;103006.34;;;16.49;100.00
47054;BME280;32811;52.382;5.270;2023-05-25T12:03:02;102980.19;;;16.42;100.00
47054;BME280;32811;52.382;5.270;2023-05-25T12:05:38;102989.91;;;16.53;100.00
47054;BME280;32811;52.382;5.270;2023-05-25T12:08:05;102966.72;;;16.12;100.00
47054;BME280;32811;52.382;5.270;2023-05-25T12:10:34;102949.75;;;15.84;100.00
47054;BME280;32811;52.382;5.270;2023-05-25T12:13:15;102951.75;;;15.99;100.00
47054;BME280;32811;52.382;5.270;2023-05-25T12:15:42;102961.34;;;16.61;100.00
47054;BME280;32811;52.382;5.270;2023-05-25T12:18:10;102978.66;;;16.57;100.00
47054;BME280;32811;52.382;5.270;2023-05-25T12:20:36;102988.09;;;16.49;99.32
47054;BME280;32811;52.382;5.270;2023-05-25T12:23:09;102998.41;;;16.43;100.00
47054;BME280;32811;52.382;5.270;2023-05-25T12:26:10;102937.25;;;16.18;100.00
47054;BME280;32811;52.382;5.270;2023-05-25T12:28:59;102943.69;;;16.43;95.31
47054;BME280;32811;52.382;5.270;2023-05-25T12:31:36;102946.22;;;16.37;98.55
47054;BME280;32811;52.382;5.270;2023-05-25T12:34:16;102929.31;;;16.73;95.00
47054;BME280;32811;52.382;5.270;2023-05-25T12:36:51;102964.41;;;16.95;94.33
47054;BME280;32811;52.382;5.270;2023-05-25T12:42:03;102937.19;;;16.77;88.23
47054;BME280;32811;52.382;5.270;2023-05-25T12:44:34;102959.88;;;16.83;88.16
47054;BME280;32811;52.382;5.270;2023-05-25T12:47:15;102965.25;;;16.92;88.44
47054;BME280;32811;52.382;5.270;2023-05-25T12:50:17;102947.09;;;17.01;87.97
47054;BME280;32811;52.382;5.270;2023-05-25T12:53:00;102942.28;;;16.67;88.96
47054;BME280;32811;52.382;5.270;2023-05-25T12:55:34;102939.56;;;16.60;88.98
47054;BME280;32811;52.382;5.270;2023-05-25T12:58:31;102944.16;;;16.78;86.66
47054;BME280;32811;52.382;5.270;2023-05-25T13:01:12;102939.13;;;16.91;87.54
47054;BME280;32811;52.382;5.270;2023-05-25T13:03:39;102937.19;;;16.77;90.62
47054;BME280;32811;52.382;5.270;2023-05-25T13:06:15;102931.25;;;16.86;85.96
47054;BME280;32811;52.382;5.270;2023-05-25T13:08:41;102947.09;;;17.05;89.02
47054;BME280;32811;52.382;5.270;2023-05-25T13:11:39;102929.56;;;16.91;87.13
47054;BME280;32811;52.382;5.270;2023-05-25T13:14:19;102956.75;;;17.12;87.14